Weather History for Presque Isle, ME

Change the Weather History Date:

Saturday, April 6, 2013

  Actual Average Record
Temperature  
Mean Temperature 24 °F -  
Max Temperature 30 °F 43 °F 57 °F (1962)
Min Temperature 19 °F 26 °F 6 °F (1926)
Degree Days  
Heating Degree Days 40    
Moisture  
Dew Point 5 °F    
Average Humidity 43    
Maximum Humidity 69    
Minimum Humidity 25    
Precipitation  
Precipitation 0.00 in - - ()
Sea Level Pressure  
Sea Level Pressure 29.91 in    
Wind  
Wind Speed - (North)    
Max Wind Speed -    
Max Gust Speed -    
Visibility 10 miles    
Events      
Averages and records for this station are not official NWS values.
T = Trace of Precipitation, MM = Missing Value Source: NWS Daily Summary

Daily Weather History Graph

Daily Weather History Graph

Search for Another Location

Airport:

Trip Planner

Search our weather history database for the weather conditions in past years. The results will help you decide how hot, cold, wet, or windy it might be!

Date:

Astronomy

Apr. 06, 2013 Rise Set
Actual Time 6:01 AM EDT 7:08 PM EDT
Civil Twilight 5:30 AM EDT 7:39 PM EDT
Nautical Twilight 4:53 AM EDT 8:16 PM EDT
Astronomical Twilight 4:14 AM EDT 8:56 PM EDT
Moon 3:56 AM EDT (4/6) 3:21 PM EDT (4/6)
Length of Visible Light 14h 08m
Length of Day
13h 06m
Waning Crescent, 15% of the Moon is Illuminated
Apr 6
Waning Crescent
Apr 10
New
Apr 18
First Quarter
Apr 25
Full
May 2
Last Quarter

Hourly Weather History & Observations

Time (EDT) Temp. Dew Point Humidity Pressure Visibility Wind Dir Wind Speed Gust Speed Precip Events Conditions
12:15 AM 28.4 °F 19.4 °F 69% 29.65 in 10.0 mi North - - N/A   Overcast
12:35 AM 28.4 °F 19.4 °F 69% 29.65 in 10.0 mi North - - N/A   Overcast
12:55 AM 28.4 °F 17.6 °F 64% 29.65 in 10.0 mi North - - N/A   Overcast
1:15 AM 28.4 °F 17.6 °F 64% 29.66 in 10.0 mi North - - N/A   Overcast
1:35 AM 28.4 °F 17.6 °F 64% 29.66 in 10.0 mi North - - N/A   Overcast
1:55 AM 28.4 °F 17.6 °F 64% 29.66 in 10.0 mi North - - N/A   Overcast
2:15 AM 28.4 °F 17.6 °F 64% 29.66 in 10.0 mi North - - N/A   Overcast
2:35 AM 28.4 °F 15.8 °F 59% 29.67 in 10.0 mi North - - N/A   Overcast
2:55 AM 26.6 °F 15.8 °F 64% 29.67 in 10.0 mi North - - N/A   Overcast
3:15 AM 26.6 °F 14.0 °F 59% 29.68 in 10.0 mi North - - N/A   Overcast
3:35 AM 26.6 °F 12.2 °F 55% 29.69 in 10.0 mi North - - N/A   Overcast
3:55 AM 24.8 °F 12.2 °F 59% 29.70 in 10.0 mi North - - N/A   Mostly Cloudy
4:15 AM 24.8 °F 10.4 °F 54% 29.71 in 10.0 mi North - - N/A   Partly Cloudy
4:35 AM 23.0 °F 10.4 °F 59% 29.72 in 10.0 mi North - - N/A   Clear
4:55 AM 21.2 °F 8.6 °F 58% 29.73 in 10.0 mi North - - N/A   Clear
5:15 AM 21.2 °F 8.6 °F 58% 29.75 in 10.0 mi North - - N/A   Clear
5:35 AM 21.2 °F 6.8 °F 54% 29.75 in 10.0 mi North - - N/A   Clear
5:55 AM 19.4 °F 6.8 °F 58% 29.76 in 10.0 mi North - - N/A   Clear
6:15 AM 19.4 °F 6.8 °F 58% 29.78 in 10.0 mi North - - N/A   Clear
6:35 AM 19.4 °F 6.8 °F 58% 29.78 in 10.0 mi North - - N/A   Clear
6:55 AM 19.4 °F 6.8 °F 58% 29.80 in 10.0 mi North - - N/A   Clear
7:35 AM 19.4 °F 5.0 °F 54% 29.82 in 10.0 mi North - - N/A   Clear
7:55 AM 19.4 °F 6.8 °F 58% 29.83 in 10.0 mi North - - N/A   Clear
8:15 AM 21.2 °F 5.0 °F 50% 29.84 in 10.0 mi North - - N/A   Partly Cloudy
8:35 AM 21.2 °F 6.8 °F 54% 29.85 in 10.0 mi North - - N/A   Partly Cloudy
8:55 AM 21.2 °F 6.8 °F 54% 29.85 in 10.0 mi North - - N/A   Clear
9:15 AM 21.2 °F 3.2 °F 46% 29.86 in 10.0 mi North - - N/A   Partly Cloudy
9:35 AM 23.0 °F 3.2 °F 43% 29.86 in 10.0 mi North - - N/A   Clear
9:55 AM 24.8 °F 3.2 °F 40% 29.87 in 10.0 mi North - - N/A   Clear
10:15 AM 24.8 °F 3.2 °F 40% 29.88 in 10.0 mi North - - N/A   Clear
10:35 AM 24.8 °F 3.2 °F 40% 29.89 in 10.0 mi North - - N/A   Clear
10:55 AM 26.6 °F 3.2 °F 37% 29.90 in 10.0 mi North - - N/A   Clear
11:15 AM 26.6 °F 3.2 °F 37% 29.91 in 10.0 mi North - - N/A   Clear
11:35 AM 26.6 °F 1.4 °F 34% 29.91 in 10.0 mi North - - N/A   Clear
11:55 AM 26.6 °F 1.4 °F 34% 29.91 in 10.0 mi North - - N/A   Clear
12:15 PM 28.4 °F 1.4 °F 31% 29.92 in 10.0 mi North - - N/A   Clear
12:35 PM 28.4 °F 1.4 °F 31% 29.92 in 10.0 mi North - - N/A   Clear
12:55 PM 28.4 °F 1.4 °F 31% 29.92 in 10.0 mi North - - N/A   Clear
1:15 PM 28.4 °F 1.4 °F 31% 29.93 in 10.0 mi North - - N/A   Clear
1:35 PM 28.4 °F 3.2 °F 34% 29.94 in 10.0 mi North - - N/A   Clear
1:55 PM 28.4 °F 3.2 °F 34% 29.95 in 10.0 mi North - - N/A   Clear
2:15 PM 28.4 °F 1.4 °F 31% 29.95 in 10.0 mi North - - N/A   Clear
2:55 PM 30.2 °F -0.4 °F 27% 29.97 in 10.0 mi North - - N/A   Clear
3:15 PM 30.2 °F -0.4 °F 27% 29.98 in 10.0 mi North - - N/A   Clear
3:35 PM 30.2 °F -0.4 °F 27% 29.98 in 10.0 mi North - - N/A   Clear
3:55 PM 30.2 °F -0.4 °F 27% 29.99 in 10.0 mi North - - N/A   Clear
4:15 PM 30.2 °F -0.4 °F 27% 29.99 in 10.0 mi North - - N/A   Clear
4:35 PM 30.2 °F -0.4 °F 27% 30.00 in 10.0 mi North - - N/A   Clear
4:55 PM 30.2 °F -2.2 °F 25% 30.01 in 10.0 mi North - - N/A   Clear
5:15 PM 30.2 °F -2.2 °F 25% 30.03 in 10.0 mi North - - N/A   Clear
5:35 PM 30.2 °F -2.2 °F 25% 30.03 in 10.0 mi North - - N/A   Clear
5:55 PM 30.2 °F -0.4 °F 27% 30.04 in 10.0 mi North - - N/A   Clear
6:15 PM 30.2 °F -0.4 °F 27% 30.05 in 10.0 mi North - - N/A   Clear
6:35 PM 28.4 °F -0.4 °F 29% 30.06 in 10.0 mi North - - N/A   Clear
7:15 PM 28.4 °F -0.4 °F 29% 30.08 in 10.0 mi North - - N/A   Clear
7:35 PM 28.4 °F -0.4 °F 29% 30.09 in 10.0 mi North - - N/A   Clear
7:55 PM 26.6 °F -0.4 °F 31% 30.11 in 10.0 mi North - - N/A   Clear
8:15 PM 26.6 °F -0.4 °F 31% 30.12 in 10.0 mi North - - N/A   Clear
8:35 PM 26.6 °F -0.4 °F 31% 30.13 in 10.0 mi North - - N/A   Clear
8:55 PM 26.6 °F -0.4 °F 31% 30.14 in 10.0 mi North - - N/A   Clear
9:15 PM 26.6 °F -0.4 °F 31% 30.15 in 10.0 mi North - - N/A   Clear
9:35 PM 24.8 °F -0.4 °F 34% 30.16 in 10.0 mi North - - N/A   Clear
9:55 PM 24.8 °F 1.4 °F 36% 30.15 in 10.0 mi North - - N/A   Clear
10:15 PM 24.8 °F -0.4 °F 34% 30.16 in 10.0 mi North - - N/A   Clear
10:35 PM 24.8 °F 1.4 °F 36% 30.17 in 10.0 mi North - - N/A   Clear
10:55 PM 19.4 °F 3.2 °F 49% 30.18 in 10.0 mi North - - N/A   Clear
11:15 PM 21.2 °F 3.2 °F 46% 30.19 in 10.0 mi North - - N/A   Clear
11:35 PM 21.2 °F 1.4 °F 42% 30.18 in 10.0 mi North - - N/A   Clear
11:55 PM 19.4 °F 5.0 °F 54% 30.19 in 10.0 mi North - - N/A   Clear